Time;durP1;ratioP1;P1;durP2;ratioP2;P2;SDS_P1;SDS_P2;PMS_P1;PMS_P2;Temp;Humidity;BMP_temperature;BMP_pressure;BME280_temperature;BME280_humidity;BME280_pressure;Samples;Min_cycle;Max_cycle;Signal;HPM_P1;HPM_P2
2022/06/04 00:01:01;;;;;;;6.03;5.40;;;;;;;14.68;83.01;96061.57;1735083;83;21485;-65
2022/06/04 00:03:28;;;;;;;5.40;4.83;;;;;;;14.65;83.31;96055.48;1734826;83;21507;-65
2022/06/04 00:05:57;;;;;;;7.00;4.67;;;;;;;14.63;82.47;96050.20;1734881;83;21010;-64
2022/06/04 00:08:26;;;;;;;5.10;4.60;;;;;;;14.68;82.39;96055.39;1734973;83;21073;-64
2022/06/04 00:16:29;;;;;;;4.83;4.30;;;;;;;14.65;82.38;96053.69;1734855;83;21548;-65
2022/06/04 00:18:57;;;;;;;5.72;4.35;;;;;;;14.61;81.64;96049.83;1734767;83;21579;-65
2022/06/04 00:21:24;;;;;;;6.00;4.22;;;;;;;14.60;81.68;96046.30;1735065;83;21022;-65
2022/06/04 00:23:51;;;;;;;5.67;4.47;;;;;;;14.58;81.66;96038.83;1735070;83;20998;-65
2022/06/04 00:26:19;;;;;;;5.60;5.10;;;;;;;14.60;82.37;96040.13;1734784;83;21026;-65
2022/06/04 00:28:47;;;;;;;5.92;4.42;;;;;;;14.67;82.94;96035.94;1735143;83;21026;-65
2022/06/04 00:31:16;;;;;;;4.78;4.37;;;;;;;14.70;82.48;96037.17;1735106;83;21034;-64
2022/06/04 00:33:44;;;;;;;5.03;4.53;;;;;;;14.67;82.30;96029.77;1734801;83;21041;-65
2022/06/04 00:36:11;;;;;;;8.15;4.28;;;;;;;14.67;81.98;96027.10;1735065;83;21030;-65
2022/06/04 00:38:39;;;;;;;5.17;4.67;;;;;;;14.71;81.91;96021.64;1735249;83;20978;-65
2022/06/04 00:41:28;;;;;;;4.85;4.37;;;;;;;14.70;81.87;96020.38;1734652;83;21026;-64
2022/06/04 00:44:13;;;;;;;5.33;4.35;;;;;;;14.68;81.87;96016.41;1734962;83;21025;-65
2022/06/04 00:46:57;;;;;;;5.25;4.33;;;;;;;14.62;82.08;96015.27;1735084;83;21038;-64
2022/06/04 00:49:23;;;;;;;4.92;4.53;;;;;;;14.52;82.20;96017.73;1734700;83;21019;-64
2022/06/04 00:51:53;;;;;;;5.08;4.40;;;;;;;14.48;82.41;96024.03;1735241;83;21042;-64
2022/06/04 00:54:20;;;;;;;6.95;4.35;;;;;;;14.54;82.94;96019.03;1734440;83;21556;-65
2022/06/04 00:57:14;;;;;;;5.33;4.40;;;;;;;14.50;82.01;96018.23;1734932;83;21045;-64
2022/06/04 00:59:55;;;;;;;4.55;3.90;;;;;;;14.53;82.96;96018.17;1734657;83;21030;-64
2022/06/04 01:02:44;;;;;;;8.08;4.40;;;;;;;14.47;82.03;96023.16;1734837;83;21500;-65
2022/06/04 01:05:25;;;;;;;4.50;4.10;;;;;;;14.44;81.90;96027.23;1735164;82;21014;-65
2022/06/04 01:08:16;;;;;;;6.37;4.05;;;;;;;14.48;81.71;96024.03;1734842;83;21053;-65
2022/06/04 01:11:04;;;;;;;7.08;4.25;;;;;;;14.47;81.74;96018.31;1715089;83;21073;-65
2022/06/04 01:13:55;;;;;;;4.60;4.20;;;;;;;14.42;82.12;96018.90;1735168;83;21555;-65
2022/06/04 01:16:45;;;;;;;4.58;3.98;;;;;;;14.46;82.18;96015.23;1728683;83;21146;-65
2022/06/04 01:19:48;;;;;;;4.75;3.92;;;;;;;14.35;82.12;96011.55;1735036;83;20962;-65
2022/06/04 01:22:46;;;;;;;4.53;4.12;;;;;;;14.34;82.53;96009.81;1734871;82;20983;-64
2022/06/04 01:25:33;;;;;;;4.90;4.00;;;;;;;14.28;82.04;96013.48;1735159;83;20986;-64
2022/06/04 01:28:10;;;;;;;5.33;4.28;;;;;;;14.23;82.64;96015.38;1734512;83;21531;-64
2022/06/04 01:30:50;;;;;;;5.97;4.60;;;;;;;14.32;82.89;96006.79;1734360;83;21566;-64
2022/06/04 01:33:28;;;;;;;4.97;4.47;;;;;;;14.41;82.92;96008.74;1734680;83;21169;-64
2022/06/04 01:36:00;;;;;;;5.00;4.33;;;;;;;14.51;82.47;96004.03;1734924;83;21476;-64
2022/06/04 01:38:44;;;;;;;5.65;4.42;;;;;;;14.59;82.00;95995.88;1734614;83;21041;-65
2022/06/04 01:41:22;;;;;;;5.08;4.58;;;;;;;14.52;81.28;95998.28;1734947;83;20976;-64
2022/06/04 01:44:15;;;;;;;5.85;4.50;;;;;;;14.39;82.50;95993.30;1731928;83;21578;-65
2022/06/04 01:46:48;;;;;;;4.62;4.00;;;;;;;14.33;81.76;95991.27;1735401;83;20963;-65
2022/06/04 01:49:26;;;;;;;5.20;4.05;;;;;;;14.28;81.60;95993.57;1734257;83;21531;-65
2022/06/04 01:51:58;;;;;;;7.58;4.60;;;;;;;14.21;81.28;96002.64;1734599;83;21029;-65
2022/06/04 01:54:30;;;;;;;4.90;4.50;;;;;;;14.17;81.75;95994.79;1732629;82;21104;-65
2022/06/04 01:57:13;;;;;;;5.33;4.50;;;;;;;14.26;82.29;96002.06;1735179;83;21061;-64
2022/06/04 01:59:44;;;;;;;5.75;4.67;;;;;;;14.29;82.76;96001.10;1734980;83;21497;-64
2022/06/04 02:02:16;;;;;;;7.95;6.47;;;;;;;14.19;82.07;96001.80;1735012;83;21022;-64
2022/06/04 02:04:47;;;;;;;8.50;7.57;;;;;;;14.04;82.44;96006.18;1734947;83;21066;-64
2022/06/04 02:07:31;;;;;;;5.90;5.40;;;;;;;14.06;82.98;96010.53;1734514;83;21041;-64
2022/06/04 02:10:27;;;;;;;4.50;4.10;;;;;;;14.05;83.18;96006.58;1735109;83;21029;-65
2022/06/04 02:13:02;;;;;;;7.60;5.00;;;;;;;14.06;82.72;96012.29;1735104;82;21054;-64
2022/06/04 02:15:36;;;;;;;4.97;4.47;;;;;;;14.04;83.24;96003.06;1735129;83;21051;-64
2022/06/04 02:18:05;;;;;;;6.70;5.47;;;;;;;14.11;83.09;96008.20;1733148;83;21006;-65
2022/06/04 02:20:32;;;;;;;6.10;5.50;;;;;;;14.13;82.83;96003.73;1734906;83;21065;-65
2022/06/04 02:22:59;;;;;;;6.95;4.97;;;;;;;14.11;82.32;96002.89;1735028;83;20994;-65
2022/06/04 02:25:29;;;;;;;5.55;4.40;;;;;;;14.11;82.58;96013.08;1734802;83;21022;-65
2022/06/04 02:27:57;;;;;;;4.92;4.42;;;;;;;14.13;82.73;96010.36;1735052;83;21054;-65
2022/06/04 02:30:32;;;;;;;4.78;4.12;;;;;;;14.05;82.05;96006.12;1734631;83;21050;-65
2022/06/04 02:33:07;;;;;;;4.70;4.30;;;;;;;14.00;81.97;96015.98;1704172;83;21468;-65
2022/06/04 02:36:07;;;;;;;3.98;3.67;;;;;;;13.94;82.71;96017.47;1734797;82;21010;-65
2022/06/04 02:38:48;;;;;;;5.83;4.92;;;;;;;13.86;81.66;96014.15;1734528;83;21018;-64
2022/06/04 02:41:29;;;;;;;5.15;4.65;;;;;;;13.82;82.43;96018.64;1734972;83;21018;-64
2022/06/04 02:44:07;;;;;;;6.35;4.60;;;;;;;13.84;82.79;96015.50;1734956;83;21029;-64
2022/06/04 02:46:41;;;;;;;6.00;4.28;;;;;;;13.79;82.85;96021.38;1733104;83;21014;-64
2022/06/04 02:49:16;;;;;;;5.30;4.78;;;;;;;13.79;83.01;96018.72;1735273;83;21013;-65
2022/06/04 02:51:47;;;;;;;4.85;4.40;;;;;;;13.70;82.70;96018.93;1735204;83;21030;-65
2022/06/04 02:54:28;;;;;;;5.10;4.60;;;;;;;13.61;82.64;96020.50;1730302;82;21031;-65
2022/06/04 02:56:57;;;;;;;5.58;4.35;;;;;;;13.57;83.61;96023.66;1727868;83;21082;-64
2022/06/04 02:59:26;;;;;;;4.92;4.45;;;;;;;13.67;83.17;96019.47;1728433;83;20994;-65
2022/06/04 03:01:58;;;;;;;5.17;4.72;;;;;;;13.70;84.23;96008.33;1728438;83;21027;-65
2022/06/04 03:04:25;;;;;;;7.17;5.40;;;;;;;13.72;83.52;96014.93;1728686;83;21006;-65
2022/06/04 03:06:52;;;;;;;9.23;5.00;;;;;;;13.77;84.18;96013.03;1728630;82;21501;-65
2022/06/04 03:09:21;;;;;;;6.80;5.47;;;;;;;13.79;84.44;96011.23;1728352;83;21524;-65
2022/06/04 03:11:50;;;;;;;5.53;4.90;;;;;;;13.82;84.13;96012.47;1728572;83;21026;-65
2022/06/04 03:14:19;;;;;;;6.22;5.40;;;;;;;13.81;83.54;96008.95;1728252;83;21061;-64
2022/06/04 03:16:48;;;;;;;5.17;4.70;;;;;;;13.87;83.50;96005.73;1728614;83;21030;-64
2022/06/04 03:19:15;;;;;;;5.58;5.08;;;;;;;13.93;83.24;96014.84;1728661;82;20994;-65
2022/06/04 03:21:43;;;;;;;6.30;4.97;;;;;;;13.94;83.48;96013.95;1728419;83;21014;-64
2022/06/04 03:24:13;;;;;;;6.45;5.00;;;;;;;13.95;83.67;96013.90;1728749;83;21001;-64
2022/06/04 03:26:41;;;;;;;5.78;5.20;;;;;;;14.02;83.95;96022.59;1728361;83;21030;-65
2022/06/04 03:29:09;;;;;;;6.20;5.05;;;;;;;14.09;83.90;96015.36;1728395;83;21070;-65
2022/06/04 03:31:35;;;;;;;5.50;4.78;;;;;;;14.15;84.15;96013.39;1728468;83;21073;-65
2022/06/04 03:34:04;;;;;;;7.87;5.03;;;;;;;14.23;84.13;96003.44;1728549;83;21029;-64
2022/06/04 03:36:32;;;;;;;5.85;5.25;;;;;;;14.27;83.43;96010.88;1728404;82;21501;-65
2022/06/04 03:39:00;;;;;;;6.08;5.35;;;;;;;14.28;83.17;96005.52;1728547;82;21006;-65
2022/06/04 03:41:27;;;;;;;5.40;4.42;;;;;;;14.38;83.76;95999.97;1728692;82;21034;-65
2022/06/04 03:43:54;;;;;;;7.70;5.03;;;;;;;14.48;83.87;95997.48;1728504;83;20983;-65
2022/06/04 03:46:24;;;;;;;5.50;4.70;;;;;;;14.60;84.19;96002.95;1728689;83;21528;-65
2022/06/04 03:48:56;;;;;;;8.30;5.83;;;;;;;14.66;84.36;95994.80;1728552;82;20990;-65
2022/06/04 03:51:26;;;;;;;4.97;4.47;;;;;;;14.76;83.75;95995.41;1728387;83;21556;-64
2022/06/04 03:53:53;;;;;;;7.85;5.12;;;;;;;14.76;83.10;95988.31;1731353;82;21002;-64
2022/06/04 03:56:21;;;;;;;9.40;5.40;;;;;;;14.83;84.08;95988.55;1734865;83;21061;-65
2022/06/04 03:58:47;;;;;;;7.17;5.12;;;;;;;15.03;83.75;95972.48;1734966;83;20974;-64
2022/06/04 04:01:27;;;;;;;5.78;4.85;;;;;;;15.03;83.75;95972.48;1735280;83;21067;-65
2022/06/04 04:03:55;;;;;;;5.78;5.22;;;;;;;15.21;84.16;95982.55;1734954;83;21001;-65
2022/06/04 04:06:26;;;;;;;8.18;5.30;;;;;;;15.36;83.58;95977.22;1735063;83;21022;-65
2022/06/04 04:08:53;;;;;;;7.85;5.45;;;;;;;15.45;83.60;95974.29;1735076;83;21022;-65
2022/06/04 04:11:25;;;;;;;6.12;4.70;;;;;;;15.57;83.27;95957.95;1734963;83;21094;-65
2022/06/04 04:13:53;;;;;;;8.28;5.20;;;;;;;15.62;82.61;95968.87;1734899;83;21484;-64
2022/06/04 04:16:22;;;;;;;6.10;4.53;;;;;;;15.59;82.91;95965.39;1735064;83;21031;-65
2022/06/04 04:18:48;;;;;;;5.70;4.92;;;;;;;15.69;83.50;95955.78;1734856;83;21526;-65
2022/06/04 04:21:20;;;;;;;9.08;4.90;;;;;;;15.76;82.90;95957.36;1735166;83;21022;-65
2022/06/04 04:23:47;;;;;;;5.90;4.90;;;;;;;15.81;83.14;95947.44;1734943;83;21022;-65
2022/06/04 04:26:15;;;;;;;6.03;4.97;;;;;;;15.93;83.13;95943.50;1734961;83;21038;-65
2022/06/04 04:28:42;;;;;;;7.83;5.22;;;;;;;16.16;83.57;95950.69;1735063;83;21002;-65
2022/06/04 04:31:20;;;;;;;5.58;4.78;;;;;;;16.16;83.57;95950.69;1734582;83;20986;-65
2022/06/04 04:33:47;;;;;;;5.12;4.67;;;;;;;16.18;82.83;95953.71;1735181;83;21045;-64
2022/06/04 04:36:14;;;;;;;5.75;5.10;;;;;;;16.19;82.11;95952.77;1734914;83;21105;-65
2022/06/04 04:38:41;;;;;;;6.42;5.20;;;;;;;16.27;82.76;95953.83;1734961;83;21049;-64
2022/06/04 04:41:13;;;;;;;7.60;5.50;;;;;;;16.34;82.59;95949.17;1734947;83;21030;-65
2022/06/04 04:43:40;;;;;;;9.78;6.05;;;;;;;16.37;82.09;95955.72;1734980;83;21014;-65
2022/06/04 04:46:10;;;;;;;8.08;6.87;;;;;;;16.44;81.84;95949.25;1734498;83;21038;-65
2022/06/04 04:48:38;;;;;;;7.65;6.95;;;;;;;16.58;82.23;95948.30;1734985;83;21009;-65
2022/06/04 04:51:06;;;;;;;6.80;6.20;;;;;;;16.70;81.72;95952.28;1735110;83;21030;-65
2022/06/04 04:53:32;;;;;;;6.25;5.65;;;;;;;16.86;81.71;95949.50;1734753;83;21137;-65
2022/06/04 04:55:59;;;;;;;6.65;5.78;;;;;;;16.95;80.33;95949.60;1735025;83;21540;-65
2022/06/04 04:58:26;;;;;;;6.70;5.95;;;;;;;17.13;81.40;95945.36;1735072;83;21030;-65
2022/06/04 05:00:52;;;;;;;10.25;6.53;;;;;;;17.33;81.07;95950.39;1734986;83;21042;-65
2022/06/04 05:03:19;;;;;;;10.15;6.42;;;;;;;17.55;80.89;95950.41;1734954;83;21045;-65
2022/06/04 05:05:48;;;;;;;7.05;6.10;;;;;;;17.78;80.57;95937.45;1734788;83;21065;-65
2022/06/04 05:08:14;;;;;;;6.92;5.95;;;;;;;18.02;80.12;95931.60;1734601;83;21027;-64
2022/06/04 05:10:43;;;;;;;7.12;5.50;;;;;;;18.12;79.23;95933.80;1734901;83;21022;-64
2022/06/04 05:13:10;;;;;;;8.30;6.40;;;;;;;18.14;78.56;95936.39;1735028;83;20986;-64
2022/06/04 05:15:36;;;;;;;6.33;5.22;;;;;;;18.15;78.41;95935.48;1734838;83;21129;-65
2022/06/04 05:18:03;;;;;;;7.53;5.90;;;;;;;18.21;78.15;95931.66;1734712;83;21101;-65
2022/06/04 05:20:30;;;;;;;6.37;5.65;;;;;;;18.26;78.45;95933.19;1735118;83;21002;-65
2022/06/04 05:22:57;;;;;;;6.97;5.90;;;;;;;18.26;78.27;95931.86;1734684;83;21125;-65
2022/06/04 05:25:23;;;;;;;6.40;5.80;;;;;;;18.25;78.54;95936.81;1735053;83;20990;-65
2022/06/04 05:27:50;;;;;;;9.05;5.90;;;;;;;18.29;78.92;95922.84;1735090;83;21006;-64
2022/06/04 05:30:17;;;;;;;7.42;5.60;;;;;;;18.30;77.71;95926.80;1734892;83;21006;-65
2022/06/04 05:32:43;;;;;;;8.23;5.87;;;;;;;18.30;76.93;95929.94;1735097;83;20975;-65
2022/06/04 05:35:10;;;;;;;6.95;6.00;;;;;;;18.31;77.61;95939.68;1735064;83;21007;-65
2022/06/04 05:37:37;;;;;;;12.15;7.00;;;;;;;18.31;76.58;95937.01;1734880;83;21046;-65
2022/06/04 05:40:06;;;;;;;6.92;6.22;;;;;;;18.30;76.79;95936.14;1734905;83;21485;-65
2022/06/04 05:42:33;;;;;;;7.10;6.50;;;;;;;18.33;76.99;95940.02;1734900;83;21004;-65
2022/06/04 05:45:00;;;;;;;7.72;7.03;;;;;;;18.36;77.41;95937.20;1734890;83;21033;-65
2022/06/04 05:47:28;;;;;;;8.50;7.70;;;;;;;18.43;77.48;95944.96;1734902;83;21507;-65
2022/06/04 05:49:55;;;;;;;7.78;7.05;;;;;;;18.46;77.39;95943.48;1734948;83;21014;-64
2022/06/04 05:52:23;;;;;;;7.90;7.10;;;;;;;18.50;77.74;95950.44;1734619;83;21110;-65
2022/06/04 05:54:49;;;;;;;10.43;6.70;;;;;;;18.56;77.67;95944.34;1734820;83;21563;-65
2022/06/04 05:57:16;;;;;;;7.80;6.53;;;;;;;18.62;76.93;95949.01;1734657;83;21564;-64
2022/06/04 05:59:43;;;;;;;9.70;6.45;;;;;;;18.68;76.92;95950.95;1734989;83;20994;-65
2022/06/04 06:02:11;;;;;;;10.32;6.25;;;;;;;18.76;77.05;95953.31;1734978;83;21492;-65
2022/06/04 06:04:38;;;;;;;8.18;6.72;;;;;;;18.88;76.99;95956.77;1734945;83;21010;-65
2022/06/04 06:07:05;;;;;;;7.00;6.30;;;;;;;18.97;76.37;95952.31;1735086;83;20987;-65
2022/06/04 06:09:32;;;;;;;9.93;6.55;;;;;;;19.13;77.18;95955.65;1734781;83;21095;-65
2022/06/04 06:11:59;;;;;;;6.95;6.25;;;;;;;19.26;76.51;95953.27;1734630;83;21603;-64
2022/06/04 06:14:25;;;;;;;5.95;5.35;;;;;;;19.34;75.96;95947.07;1728393;83;21488;-65
2022/06/04 06:16:53;;;;;;;7.50;5.67;;;;;;;19.43;75.91;95956.01;1734492;83;21543;-65
2022/06/04 06:19:23;;;;;;;6.80;5.17;;;;;;;19.51;74.97;95955.16;1735354;83;21022;-65
2022/06/04 06:21:50;;;;;;;6.90;5.08;;;;;;;19.58;74.11;95949.92;1735071;83;21034;-65
2022/06/04 06:24:17;;;;;;;7.00;5.50;;;;;;;19.68;74.15;95947.70;1734983;83;21018;-65
2022/06/04 06:26:54;;;;;;;6.92;5.42;;;;;;;19.84;74.82;95943.30;1735045;83;21026;-65
2022/06/04 06:29:24;;;;;;;6.53;5.92;;;;;;;19.99;73.74;95944.83;1735216;83;21004;-65
2022/06/04 06:31:51;;;;;;;7.58;6.37;;;;;;;20.04;73.38;95938.30;1734928;83;21022;-65
2022/06/04 06:34:19;;;;;;;8.53;6.05;;;;;;;20.14;73.10;95944.06;1735004;83;21030;-64
2022/06/04 06:36:47;;;;;;;7.30;5.15;;;;;;;20.15;73.29;95943.09;1735161;83;20986;-65
2022/06/04 06:39:14;;;;;;;10.25;5.50;;;;;;;20.16;72.11;95940.83;1735056;83;21018;-65
2022/06/04 06:41:41;;;;;;;10.08;5.70;;;;;;;20.18;72.17;95940.73;1734815;83;21070;-65
2022/06/04 06:44:12;;;;;;;12.68;7.60;;;;;;;20.28;72.97;95936.64;1735122;83;20990;-65
2022/06/04 06:46:47;;;;;;;10.68;8.45;;;;;;;20.38;73.78;95937.03;1734925;83;20998;-65
2022/06/04 06:49:19;;;;;;;11.38;8.38;;;;;;;20.41;73.90;95937.77;1735173;83;21034;-65
2022/06/04 06:51:51;;;;;;;11.50;8.33;;;;;;;20.38;73.92;95927.66;1735239;83;21035;-65
2022/06/04 06:54:20;;;;;;;10.95;8.08;;;;;;;20.28;74.19;95932.14;1733381;83;21552;-65
2022/06/04 06:56:50;;;;;;;14.23;8.30;;;;;;;20.23;74.62;95934.19;1728823;82;21050;-65
2022/06/04 06:59:20;;;;;;;9.83;8.45;;;;;;;20.19;75.21;95942.48;1728557;83;21496;-65
2022/06/04 07:01:48;;;;;;;9.40;7.83;;;;;;;20.12;75.20;95939.25;1728487;83;21023;-65
2022/06/04 07:04:15;;;;;;;10.95;7.40;;;;;;;20.03;75.80;95941.03;1728687;83;20951;-64
2022/06/04 07:06:45;;;;;;;10.03;7.50;;;;;;;19.91;76.68;95942.55;1728706;83;21014;-65
2022/06/04 07:09:28;;;;;;;7.75;6.95;;;;;;;19.81;77.02;95954.17;1728599;82;21054;-65
2022/06/04 07:11:56;;;;;;;7.62;6.72;;;;;;;19.76;77.14;95954.02;1728380;83;21022;-64
2022/06/04 07:14:23;;;;;;;9.33;6.10;;;;;;;19.70;78.37;95959.17;1728661;83;20986;-65
2022/06/04 07:16:51;;;;;;;9.15;7.25;;;;;;;19.60;78.13;95962.73;1728276;83;21051;-64
2022/06/04 07:19:21;;;;;;;8.70;7.25;;;;;;;19.54;78.72;95962.17;1728597;83;21496;-65
2022/06/04 07:21:48;;;;;;;10.63;7.50;;;;;;;19.49;78.99;95965.55;1728431;83;21527;-65
2022/06/04 07:24:15;;;;;;;9.85;7.25;;;;;;;19.43;79.74;95962.70;1728517;83;21563;-65
2022/06/04 07:26:43;;;;;;;12.50;7.28;;;;;;;19.40;79.72;95958.36;1727989;83;21113;-65
2022/06/04 07:29:11;;;;;;;11.75;7.00;;;;;;;19.36;80.24;95954.09;1728657;83;21010;-65
2022/06/04 07:31:39;;;;;;;13.90;7.08;;;;;;;19.33;79.78;95941.34;1728469;82;21018;-65
2022/06/04 07:34:06;;;;;;;9.40;6.78;;;;;;;19.30;80.90;95942.31;1728370;83;21074;-65
2022/06/04 07:36:41;;;;;;;9.30;7.62;;;;;;;19.29;80.56;95944.61;1728606;82;21058;-65
2022/06/04 07:39:10;;;;;;;10.60;7.30;;;;;;;19.26;82.35;95944.77;1728626;83;21035;-64
2022/06/04 07:41:43;;;;;;;8.73;7.33;;;;;;;19.34;82.65;95939.91;1728533;82;21081;-64
2022/06/04 07:44:12;;;;;;;11.80;6.85;;;;;;;19.49;82.51;95953.02;1728657;83;21086;-64
2022/06/04 07:46:40;;;;;;;8.85;7.83;;;;;;;19.55;81.95;95950.52;1728393;83;21030;-65
2022/06/04 07:49:08;;;;;;;11.20;7.40;;;;;;;19.56;81.81;95954.47;1728414;83;21023;-65
2022/06/04 07:51:37;;;;;;;9.90;6.70;;;;;;;19.61;81.37;95950.23;1728545;83;21006;-65
2022/06/04 07:54:08;;;;;;;6.45;5.42;;;;;;;19.75;82.04;95954.94;1728695;83;21026;-65
2022/06/04 07:56:37;;;;;;;10.93;6.50;;;;;;;19.81;81.88;95948.82;1735043;83;21066;-65
2022/06/04 07:59:06;;;;;;;6.58;5.78;;;;;;;19.90;82.04;95954.18;1734991;83;21508;-65
2022/06/04 08:01:33;;;;;;;9.03;6.45;;;;;;;19.98;81.81;95954.69;1734809;83;21030;-65
2022/06/04 08:03:59;;;;;;;9.38;6.95;;;;;;;20.04;81.10;95954.84;1735079;83;21054;-65
2022/06/04 08:06:26;;;;;;;9.05;6.92;;;;;;;20.05;81.18;95954.75;1735085;83;20974;-65
2022/06/04 08:08:55;;;;;;;8.33;6.55;;;;;;;20.09;81.11;95951.46;1734957;83;21014;-65
2022/06/04 08:11:32;;;;;;;6.55;5.70;;;;;;;20.17;80.60;95951.07;1735050;83;21567;-65
2022/06/04 08:14:10;;;;;;;7.72;6.30;;;;;;;20.17;80.29;95947.91;1734782;83;21023;-65
2022/06/04 08:16:41;;;;;;;7.22;6.00;;;;;;;20.22;80.92;95935.62;1734743;83;20998;-64
2022/06/04 08:19:09;;;;;;;9.20;6.92;;;;;;;20.19;79.90;95929.95;1734998;83;21069;-65
2022/06/04 08:21:38;;;;;;;7.33;6.00;;;;;;;20.16;80.67;95933.24;1734927;83;21030;-64
2022/06/04 08:24:08;;;;;;;10.23;6.67;;;;;;;20.25;81.46;95936.32;1734864;83;21058;-65
2022/06/04 08:26:34;;;;;;;10.15;6.40;;;;;;;20.26;81.07;95937.19;1734980;83;21065;-65
2022/06/04 08:29:01;;;;;;;6.92;6.20;;;;;;;20.29;81.45;95931.70;1735051;83;21046;-65
2022/06/04 08:31:29;;;;;;;8.15;7.03;;;;;;;20.38;81.52;95926.31;1734777;83;21006;-65
2022/06/04 08:33:57;;;;;;;8.70;6.30;;;;;;;20.48;81.73;95916.36;1734733;83;21114;-65
2022/06/04 08:36:23;;;;;;;6.97;6.30;;;;;;;20.62;81.47;95917.02;1735330;83;21016;-65
2022/06/04 08:38:50;;;;;;;8.70;6.12;;;;;;;20.65;80.87;95919.53;1734578;83;21030;-65
2022/06/04 08:41:55;;;;;;;9.65;6.00;;;;;;;20.73;81.00;95916.44;1735024;83;21038;-65
2022/06/04 08:44:36;;;;;;;11.78;5.83;;;;;;;20.74;80.46;95912.34;1734412;83;21042;-65
2022/06/04 08:47:17;;;;;;;10.63;6.60;;;;;;;20.74;80.51;95912.83;1734970;83;21019;-65
2022/06/04 08:49:52;;;;;;;9.40;6.08;;;;;;;20.78;80.47;95919.74;1735110;83;21460;-65
2022/06/04 08:52:24;;;;;;;9.10;6.47;;;;;;;20.77;80.22;95913.14;1734902;83;21046;-65
2022/06/04 08:57:58;;;;;;;6.83;5.83;;;;;;;20.73;80.49;95912.42;1735059;83;20979;-65
2022/06/04 09:00:36;;;;;;;8.03;5.97;;;;;;;20.75;80.42;95911.88;1734185;83;21002;-65
2022/06/04 09:03:34;;;;;;;6.92;6.22;;;;;;;20.63;79.84;95906.68;1734035;83;21019;-65
2022/06/04 09:06:15;;;;;;;8.78;7.05;;;;;;;20.53;80.41;95910.77;1734139;83;21018;-66
2022/06/04 09:09:15;;;;;;;9.15;6.92;;;;;;;20.46;81.53;95910.25;1734730;83;21086;-65
2022/06/04 09:12:05;;;;;;;8.75;7.30;;;;;;;20.47;81.36;95905.74;1734914;82;21524;-65
2022/06/04 09:15:02;;;;;;;8.00;6.40;;;;;;;20.58;81.64;95896.67;1716431;83;21071;-65
2022/06/04 09:17:45;;;;;;;7.65;6.47;;;;;;;20.72;81.34;95894.13;1734853;83;21491;-65
2022/06/04 09:20:18;;;;;;;;;;;;;;;20.84;80.80;95883.67;1737452;83;21493;-65
2022/06/04 09:22:48;;;;;;;9.85;6.83;;;;;;;20.97;80.93;95882.08;1735375;83;20109;-65
2022/06/04 09:25:19;;;;;;;7.40;6.53;;;;;;;21.10;80.86;95880.44;1734912;83;21026;-65
2022/06/04 09:28:10;;;;;;;10.40;6.40;;;;;;;21.30;80.39;95878.46;1734889;83;21014;-65
2022/06/04 09:30:45;;;;;;;9.60;6.58;;;;;;;21.47;79.98;95877.06;1734203;83;21046;-65
2022/06/04 09:33:50;;;;;;;9.28;6.53;;;;;;;21.70;79.64;95882.45;1734562;83;21026;-65
2022/06/04 09:36:22;;;;;;;8.05;6.12;;;;;;;21.91;79.18;95887.52;1733295;83;21017;-65
2022/06/04 09:38:59;;;;;;;7.50;6.40;;;;;;;22.27;78.59;95876.90;1714767;83;21033;-65
2022/06/04 09:41:30;;;;;;;8.00;6.75;;;;;;;22.48;77.42;95882.33;1734865;83;21697;-65
2022/06/04 09:44:15;;;;;;;10.13;7.40;;;;;;;22.65;76.85;95882.62;1735167;83;21010;-65
2022/06/04 09:46:45;;;;;;;7.28;6.60;;;;;;;22.75;76.19;95880.23;1729743;83;21027;-65
2022/06/04 09:49:44;;;;;;;7.92;7.15;;;;;;;22.67;74.53;95878.02;1734981;83;20966;-65
2022/06/04 09:52:40;;;;;;;8.65;6.85;;;;;;;22.65;75.46;95876.78;1734087;83;21073;-65
2022/06/04 09:55:17;;;;;;;7.85;6.80;;;;;;;22.52;75.30;95868.20;1733338;83;21028;-65
2022/06/04 09:57:57;;;;;;;7.90;7.10;;;;;;;22.36;75.38;95873.17;1728526;83;21026;-65
2022/06/04 10:00:29;;;;;;;7.42;6.75;;;;;;;22.22;75.66;95875.83;1728615;83;21010;-65
2022/06/04 10:03:05;;;;;;;9.55;7.83;;;;;;;22.04;75.66;95871.05;1728463;83;21030;-65
2022/06/04 10:05:32;;;;;;;8.15;7.35;;;;;;;21.90;76.68;95873.22;1727394;83;21042;-65
2022/06/04 10:07:59;;;;;;;8.20;7.40;;;;;;;21.78;76.63;95873.94;1728335;83;21066;-65
2022/06/04 10:10:38;;;;;;;7.75;7.03;;;;;;;21.70;76.65;95869.02;1728521;82;21481;-65
2022/06/04 10:16:29;;;;;;;8.68;7.28;;;;;;;21.65;76.64;95875.13;1728474;82;20962;-65
2022/06/04 10:19:14;;;;;;;8.55;7.00;;;;;;;21.56;77.24;95871.14;1725647;83;21074;-65
2022/06/04 10:21:44;;;;;;;7.25;5.90;;;;;;;21.58;77.32;95869.73;1728537;83;21520;-65
2022/06/04 10:24:29;;;;;;;7.10;6.12;;;;;;;21.54;76.42;95863.65;1728334;82;21084;-65
2022/06/04 10:27:19;;;;;;;8.63;5.83;;;;;;;21.46;76.41;95867.74;1728531;83;21002;-65
2022/06/04 10:30:09;;;;;;;6.80;6.15;;;;;;;21.52;76.96;95866.92;1726776;83;21039;-65
2022/06/04 10:32:53;;;;;;;7.22;5.28;;;;;;;21.61;78.04;95858.80;1728453;82;20982;-65
2022/06/04 10:36:03;;;;;;;6.95;6.12;;;;;;;21.61;77.12;95858.80;1722552;83;21033;-65
2022/06/04 10:38:41;;;;;;;7.33;5.95;;;;;;;21.68;77.46;95848.58;1728716;82;21018;-65
2022/06/04 10:41:16;;;;;;;7.87;5.28;;;;;;;21.83;77.19;95854.39;1728513;83;21046;-65
2022/06/04 10:44:10;;;;;;;6.78;5.65;;;;;;;21.90;76.79;95842.33;1728532;83;20982;-65
2022/06/04 10:46:48;;;;;;;6.22;5.70;;;;;;;21.93;76.50;95843.97;1708133;83;21026;-65
2022/06/04 10:49:40;;;;;;;6.33;5.75;;;;;;;21.94;75.87;95838.48;1721879;83;21046;-65
2022/06/04 10:52:36;;;;;;;6.83;5.80;;;;;;;21.94;75.68;95839.83;1728396;83;21524;-64
2022/06/04 10:55:26;;;;;;;7.30;6.42;;;;;;;22.03;76.32;95835.74;1728390;83;21022;-65
2022/06/04 10:58:11;;;;;;;6.90;6.17;;;;;;;22.13;75.39;95836.92;1735073;83;21038;-65
2022/06/04 11:01:04;;;;;;;8.13;6.30;;;;;;;22.27;75.56;95833.89;1734378;83;21010;-65
2022/06/04 11:03:43;;;;;;;8.60;5.72;;;;;;;22.37;74.79;95828.33;1733948;83;21030;-65
2022/06/04 11:06:29;;;;;;;7.55;6.00;;;;;;;22.47;74.88;95822.77;1734228;83;21504;-65
2022/06/04 11:09:17;;;;;;;7.62;6.92;;;;;;;22.55;74.01;95821.80;1735300;83;21061;-65
2022/06/04 11:12:01;;;;;;;7.70;6.90;;;;;;;22.72;73.87;95826.63;1734686;83;21037;-65
2022/06/04 11:14:48;;;;;;;8.90;6.62;;;;;;;22.94;73.44;95831.03;1735006;83;21571;-65
2022/06/04 11:17:21;;;;;;;7.70;6.92;;;;;;;23.23;72.92;95825.62;1735121;83;21560;-65
2022/06/04 11:20:02;;;;;;;7.08;6.35;;;;;;;23.38;72.80;95822.41;1734978;83;21026;-65
2022/06/04 11:22:36;;;;;;;7.83;6.90;;;;;;;23.49;71.92;95819.89;1734849;83;21006;-65
2022/06/04 11:25:27;;;;;;;8.45;6.95;;;;;;;23.60;72.97;95820.52;1728354;83;21484;-65
2022/06/04 11:28:03;;;;;;;7.65;6.72;;;;;;;23.75;72.71;95808.25;1735127;83;21070;-65
2022/06/04 11:30:42;;;;;;;12.65;7.70;;;;;;;23.96;70.45;95809.98;1704499;83;21013;-65
2022/06/04 11:33:16;;;;;;;7.85;7.00;;;;;;;23.93;70.63;95807.97;1734929;83;21014;-65
2022/06/04 11:36:05;;;;;;;7.80;7.03;;;;;;;23.79;71.03;95807.58;1734304;83;21006;-65
2022/06/04 11:38:49;;;;;;;9.15;8.00;;;;;;;23.65;70.71;95800.38;1735037;83;21038;-65
2022/06/04 11:41:44;;;;;;;10.20;7.62;;;;;;;23.33;70.36;95797.12;1734824;82;21026;-65
2022/06/04 11:44:47;;;;;;;8.83;8.03;;;;;;;23.16;71.31;95798.25;1733475;83;21006;-65
2022/06/04 11:47:33;;;;;;;13.22;8.58;;;;;;;22.99;71.29;95805.21;1734509;83;21094;-65
2022/06/04 11:50:23;;;;;;;8.40;7.60;;;;;;;22.84;71.54;95812.40;1735117;83;21018;-65
2022/06/04 11:53:12;;;;;;;10.50;7.92;;;;;;;22.69;72.27;95807.02;1735144;83;20990;-65
2022/06/04 11:55:53;;;;;;;9.30;7.42;;;;;;;22.59;72.55;95799.16;1733911;83;21209;-65
2022/06/04 11:58:52;;;;;;;8.40;7.20;;;;;;;22.56;73.26;95802.53;1728631;82;20979;-65
2022/06/04 12:01:41;;;;;;;7.75;6.92;;;;;;;22.52;73.86;95799.64;1723557;83;21011;-64
2022/06/04 12:04:36;;;;;;;10.80;7.80;;;;;;;22.46;74.19;95808.95;1728488;83;21050;-65
2022/06/04 12:07:18;;;;;;;7.97;6.70;;;;;;;22.46;74.08;95806.27;1728555;83;21027;-65
2022/06/04 12:10:13;;;;;;;7.53;6.83;;;;;;;22.53;74.00;95801.34;1728178;82;21019;-64
2022/06/04 12:13:06;;;;;;;7.58;6.78;;;;;;;22.63;74.16;95789.09;1728766;83;21006;-65
2022/06/04 12:15:47;;;;;;;8.50;7.65;;;;;;;22.75;73.03;95795.48;1728590;83;21066;-65
2022/06/04 12:18:27;;;;;;;8.20;6.20;;;;;;;22.74;73.29;95795.98;1728487;83;21042;-65